This is the latest recevied weather packets stored in our database for station/object KM4RT-13. If no packets are shown the sender has not sent any weather packets the latest 10 day(s).
| Time | Temp. | Humidity | Pressure | Rain* | Wind** | Luminosity | Snow |
|---|---|---|---|---|---|---|---|
| 1778005779 | 16.67° C | 99% | 1006 hPa | 0 mm | - | 98 W/m² | - |
| 1778005477 | 16.67° C | 99% | 1006 hPa | 0 mm | - | 119 W/m² | - |
| 1778005173 | 16.11° C | 99% | 1006.1 hPa | 1.27 mm | - | 130 W/m² | - |
| 1778004870 | 16.11° C | 99% | 1006.3 hPa | 1.27 mm | - | 135 W/m² | - |
| 1778004567 | 16.11° C | 99% | 1006.4 hPa | 0 mm | - | 112 W/m² | - |
| 1778004263 | 16.11° C | 99% | 1006.4 hPa | 0 mm | - | 151 W/m² | - |
| 1778003960 | 16.11° C | 99% | 1006.5 hPa | 0 mm | - | 87 W/m² | - |
| 1778003656 | 16.11° C | 99% | 1006.7 hPa | 1.78 mm | - | 57 W/m² | - |
| 1778003353 | 15.56° C | 99% | 1006.9 hPa | 3.05 mm | - | 33 W/m² | - |
| 1778003051 | 15.56° C | 99% | 1006.9 hPa | 6.1 mm | - | 53 W/m² | - |
| 1778002747 | 15.56° C | 99% | 1007 hPa | 6.6 mm | - | 38 W/m² | - |
| 1778002443 | 15.56° C | 99% | 1007 hPa | 9.65 mm | - | 45 W/m² | - |
| 1778002140 | 15.56° C | 99% | 1007 hPa | 10.16 mm | - | 31 W/m² | - |
| 1778001838 | 15.56° C | 99% | 1006.9 hPa | 8.89 mm | - | 20 W/m² | - |
| 1778001537 | 15.56° C | 99% | 1007 hPa | 19.81 mm | - | 17 W/m² | - |
| 1778001234 | 15.56° C | 99% | 1007 hPa | 26.42 mm | - | 14 W/m² | - |
| 1778000931 | 15.56° C | 99% | 1007.1 hPa | 18.03 mm | - | 28 W/m² | - |
| 1778000628 | 15.56° C | 99% | 1007.3 hPa | 4.32 mm | - | 44 W/m² | - |
| 1778000323 | 15.56° C | 99% | 1007.3 hPa | 0 mm | - | 54 W/m² | - |
| 1778000019 | 15.56° C | 99% | 1006.9 hPa | 1.78 mm | - | 111 W/m² | - |
| 1777999715 | 15.56° C | 99% | 1007.2 hPa | 9.65 mm | - | 98 W/m² | - |
| 1777999412 | 15.56° C | 99% | 1007.4 hPa | 8.89 mm | - | 82 W/m² | - |
| 1777999110 | 15.56° C | 99% | 1007.2 hPa | 10.67 mm | - | 104 W/m² | - |
| 1777998809 | 15.56° C | 99% | 1007.6 hPa | 10.67 mm | - | 50 W/m² | - |
| 1777998507 | 15.56° C | 99% | 1007.6 hPa | 3.05 mm | - | 111 W/m² | - |
* Rain latest hour (hover to see other rain measurements)
** Current wind speed in m/s (hover to see current wind gust speed)